Other Surface Observations
Issued by NWS Great Falls, MT

Home | Current Version | Previous Version | Text Only | Print | Product List | Glossary On
Versions: 1 2 3 4 5 6 7 8 9 10 11 12 13 14 15 16 17 18 19 20 21 22 23 24 25 26 27 28 29 30 31 32 33 34 35 36 37 38 39 40 41 42 43 44 45 46 47 48 49 50
853
SXUS55 KTFX 270659
OSOTFX
AREA AWOS OBSERVATIONS
NATIONAL WEATHER SERVICE GREAT FALLS MT
1259 AM MDT SAT MAY 27 2017

METAR KPWD 270700Z AUTO 00000KT 10SM 09/03 A2984 RMK PLENTYWOOD
METAR KPO1 270700Z AUTO 23005KT 10SM 07/02 A2987 RMK POPLAR
METAR K1S3 270700Z AUTO 22003KT 10SM 12/03 A2996 RMK FORSYTH
METAR KS71 270700Z AUTO 00000KT 10SM 09/03 A2990 RMK CHINOOK
METAR K79S 270700Z AUTO 00000KT 10SM 10/03 A2997 RMK FORT BENTON
METAR K38S 270700Z AUTO 00000KT 10SM 08/04 A3010 RMK DEER LODGE
METAR K3U3 270700Z AUTO 27004KT 10SM 09/01 A3008 RMK ANACONDA
METAR K6S5 270700Z AUTO 00000KT 10SM 11/03 A3007 RMK HAMILTON
METAR K88M 270700Z AUTO 00000KT 10SM 08/04 A2999 RMK EUREKA



USA.gov is the U.S. government's official web portal to all federal, state and local government web resources and services.